Time;durP1;ratioP1;P1;durP2;ratioP2;P2;SDS_P1;SDS_P2;PMS_P1;PMS_P2;Temp;Humidity;BMP_temperature;BMP_pressure;BME280_temperature;BME280_humidity;BME280_pressure;Samples;Min_cycle;Max_cycle;Signal;HPM_P1;HPM_P2
2022/09/30 00:01:16;;;;;;;5.82;1.10;;;17.60;91.00;;;;;;5070247;28;20024;-64
2022/09/30 00:03:43;;;;;;;9.13;1.55;;;17.70;90.50;;;;;;5063600;28;20460;-63
2022/09/30 00:06:11;;;;;;;2.60;0.70;;;17.80;87.20;;;;;;5051013;28;20371;-63
2022/09/30 00:08:39;;;;;;;4.68;1.10;;;18.00;87.90;;;;;;5053799;28;20048;-63
2022/09/30 00:11:15;;;;;;;5.80;1.73;;;18.20;86.90;;;;;;5052535;28;20044;-65
2022/09/30 00:13:43;;;;;;;3.33;1.10;;;18.60;89.00;;;;;;5050083;28;20041;-63
2022/09/30 00:16:13;;;;;;;8.23;1.25;;;18.80;85.00;;;;;;5045696;28;20029;-62
2022/09/30 00:18:42;;;;;;;4.70;1.20;;;18.90;84.80;;;;;;5045478;28;20028;-64
2022/09/30 00:21:11;;;;;;;9.90;1.80;;;18.90;85.10;;;;;;5050769;28;20032;-63
2022/09/30 00:23:39;;;;;;;4.82;1.00;;;18.80;87.40;;;;;;5051649;28;20063;-64
2022/09/30 00:26:11;;;;;;;10.85;1.63;;;18.80;83.60;;;;;;5056960;28;20020;-65
2022/09/30 00:28:39;;;;;;;7.72;1.70;;;18.60;82.00;;;;;;5045243;28;20029;-62
2022/09/30 00:31:11;;;;;;;9.20;1.27;;;18.30;83.00;;;;;;5054809;28;20029;-62
2022/09/30 00:33:39;;;;;;;8.73;1.92;;;18.20;85.20;;;;;;5057595;28;20094;-63
2022/09/30 00:36:07;;;;;;;10.15;1.27;;;18.00;90.30;;;;;;5038677;28;20028;-62
2022/09/30 00:38:34;;;;;;;14.00;2.42;;;17.50;92.00;;;;;;5057701;28;20040;-62
2022/09/30 00:41:02;;;;;;;11.55;1.88;;;17.40;91.90;;;;;;5048556;28;20025;-63
2022/09/30 00:43:45;;;;;;;10.18;2.15;;;17.30;92.00;;;;;;5062310;28;20033;-63
2022/09/30 00:46:50;;;;;;;8.23;1.98;;;17.30;93.00;;;;;;5052856;28;20013;-63
2022/09/30 00:49:21;;;;;;;;;;;17.40;91.20;;;;;;5045820;28;20049;-62
2022/09/30 00:51:57;;;;;;;8.25;1.85;;;17.50;91.40;;;;;;5044071;28;20301;-63
2022/09/30 00:54:29;;;;;;;10.32;1.98;;;17.60;91.30;;;;;;5053990;28;20043;-62
2022/09/30 00:57:00;;;;;;;7.72;1.77;;;17.50;91.70;;;;;;5059581;28;20489;-59
2022/09/30 00:59:32;;;;;;;11.15;2.35;;;17.50;91.70;;;;;;5065692;28;20024;-60
2022/09/30 01:02:00;;;;;;;9.50;2.20;;;17.50;92.10;;;;;;5049390;28;20373;-60
2022/09/30 01:04:31;;;;;;;7.68;3.30;;;17.40;92.60;;;;;;5050149;28;20569;-59
2022/09/30 01:07:03;;;;;;;10.63;2.75;;;17.50;93.20;;;;;;5059890;28;20040;-59
2022/09/30 01:09:34;;;;;;;12.50;2.00;;;17.50;92.20;;;;;;5062812;28;20025;-60
2022/09/30 01:12:13;;;;;;;15.98;1.88;;;17.80;92.50;;;;;;5053205;28;20032;-59
2022/09/30 01:14:41;;;;;;;7.60;1.85;;;18.30;92.90;;;;;;5058103;28;20070;-60
2022/09/30 01:17:50;;;;;;;13.40;2.63;;;18.60;90.80;;;;;;5057126;28;20029;-59
2022/09/30 01:20:55;;;;;;;6.85;2.13;;;19.00;86.10;;;;;;5051096;28;20477;-59
2022/09/30 01:24:03;;;;;;;10.30;2.08;;;19.20;83.90;;;;;;5043972;28;20067;-60
2022/09/30 01:26:45;;;;;;;9.90;2.10;;;19.40;83.80;;;;;;5046963;28;20040;-60
2022/09/30 01:29:23;;;;;;;7.93;1.80;;;19.40;80.40;;;;;;5046976;28;20029;-60
2022/09/30 01:32:23;;;;;;;9.65;1.55;;;19.50;79.70;;;;;;5047885;28;20039;-59
2022/09/30 01:35:17;;;;;;;4.22;1.13;;;19.50;79.60;;;;;;5060251;28;20043;-59
2022/09/30 01:38:01;;;;;;;8.23;1.67;;;19.80;79.20;;;;;;5050034;28;20440;-60
2022/09/30 01:41:01;;;;;;;7.43;2.35;;;20.00;75.70;;;;;;5047670;28;20496;-59
2022/09/30 01:43:34;;;;;;;13.80;1.98;;;19.80;74.50;;;;;;5046080;28;20033;-59
2022/09/30 01:46:12;;;;;;;9.77;2.35;;;19.80;75.10;;;;;;5045797;28;20021;-60
2022/09/30 01:49:07;;;;;;;8.48;1.92;;;19.70;75.90;;;;;;5055213;28;20048;-60
2022/09/30 01:51:55;;;;;;;7.65;2.00;;;19.60;79.80;;;;;;5051828;28;20063;-61
2022/09/30 01:54:33;;;;;;;10.23;1.85;;;19.30;79.90;;;;;;5045309;28;20079;-60
2022/09/30 01:57:17;;;;;;;11.75;2.75;;;19.20;80.60;;;;;;5055245;28;20037;-60
2022/09/30 02:00:04;;;;;;;8.20;1.73;;;19.00;79.40;;;;;;5046646;28;20026;-60
2022/09/30 02:02:47;;;;;;;8.63;1.58;;;18.90;82.00;;;;;;5049409;28;20052;-62
2022/09/30 02:05:32;;;;;;;12.20;1.80;;;19.20;81.90;;;;;;5043119;28;20017;-60
2022/09/30 02:08:33;;;;;;;12.35;1.48;;;19.30;81.50;;;;;;5052260;28;20038;-59
2022/09/30 02:11:19;;;;;;;6.55;1.65;;;19.30;80.10;;;;;;5052754;28;20056;-60
2022/09/30 02:14:12;;;;;;;9.90;1.40;;;18.90;81.80;;;;;;5063276;28;20037;-60
2022/09/30 02:16:48;;;;;;;7.50;1.38;;;18.70;83.40;;;;;;5043363;28;20087;-60
2022/09/30 02:20:05;;;;;;;9.95;1.85;;;18.90;83.80;;;;;;5052633;28;20029;-60
2022/09/30 02:22:43;;;;;;;7.57;1.50;;;18.90;82.10;;;;;;5048648;28;20182;-59
2022/09/30 02:25:19;;;;;;;10.20;2.03;;;19.00;80.20;;;;;;5050646;28;20025;-59
2022/09/30 02:27:55;;;;;;;9.85;1.67;;;19.10;80.00;;;;;;5053577;28;20029;-61
2022/09/30 02:30:23;;;;;;;11.27;2.30;;;19.10;79.10;;;;;;5053441;28;20765;-59
2022/09/30 02:32:58;;;;;;;14.80;2.10;;;19.20;77.60;;;;;;5047343;28;20136;-59
2022/09/30 02:35:32;;;;;;;8.20;1.67;;;19.20;77.40;;;;;;5062751;28;20020;-60
2022/09/30 02:38:05;;;;;;;8.38;1.55;;;19.50;75.50;;;;;;5053300;28;20115;-59
2022/09/30 02:40:41;;;;;;;13.85;2.15;;;19.90;74.40;;;;;;5049226;28;20024;-59
2022/09/30 02:43:09;;;;;;;11.27;1.45;;;20.30;72.60;;;;;;5065297;28;20071;-59
2022/09/30 02:46:05;;;;;;;6.07;1.10;;;20.30;70.10;;;;;;5053379;28;20048;-60
2022/09/30 02:48:57;;;;;;;8.13;1.55;;;20.10;67.80;;;;;;5059104;28;20053;-60
2022/09/30 02:51:58;;;;;;;5.38;1.30;;;20.00;69.10;;;;;;5057294;28;20051;-63
2022/09/30 02:54:50;;;;;;;8.73;1.75;;;20.50;69.90;;;;;;5054813;28;20390;-59
2022/09/30 02:57:28;;;;;;;8.90;1.48;;;21.00;67.10;;;;;;5053495;28;20156;-59
2022/09/30 02:59:56;;;;;;;12.70;1.83;;;21.10;68.30;;;;;;5042411;28;20060;-60
2022/09/30 03:02:23;;;;;;;9.98;1.63;;;21.20;69.30;;;;;;5048234;28;20021;-60
2022/09/30 03:04:51;;;;;;;7.03;1.05;;;21.20;68.90;;;;;;5062791;28;20032;-59
2022/09/30 03:07:18;;;;;;;5.88;1.45;;;21.10;65.70;;;;;;5050582;28;20074;-59
2022/09/30 03:09:45;;;;;;;8.23;1.08;;;20.80;68.40;;;;;;5052070;28;20026;-59
2022/09/30 03:12:41;;;;;;;7.20;1.52;;;20.50;67.80;;;;;;5059284;28;20040;-60
2022/09/30 03:15:41;;;;;;;10.95;2.30;;;20.10;70.30;;;;;;5063937;28;20024;-60
2022/09/30 03:18:35;;;;;;;6.95;1.20;;;19.80;71.90;;;;;;5043718;28;20009;-60
2022/09/30 03:21:17;;;;;;;9.93;2.35;;;19.50;71.40;;;;;;5058199;28;20028;-60
2022/09/30 03:24:05;;;;;;;11.52;1.58;;;19.40;72.60;;;;;;5053743;28;20035;-60
2022/09/30 03:26:56;;;;;;;9.20;1.70;;;19.30;74.40;;;;;;5041405;28;20039;-60
2022/09/30 03:29:34;;;;;;;15.30;2.17;;;19.40;75.30;;;;;;5043648;28;20048;-60
2022/09/30 03:32:04;;;;;;;10.20;2.47;;;19.60;72.80;;;;;;5051909;28;20028;-59
2022/09/30 03:34:53;;;;;;;9.77;2.20;;;19.80;71.20;;;;;;5050708;28;20022;-61
2022/09/30 03:37:57;;;;;;;11.73;1.85;;;19.90;71.30;;;;;;5054107;28;20024;-60
2022/09/30 03:40:34;;;;;;;11.52;2.42;;;20.10;70.30;;;;;;5040592;28;20037;-60
2022/09/30 03:43:17;;;;;;;11.88;1.70;;;20.40;72.50;;;;;;5046464;28;20079;-60
2022/09/30 03:46:05;;;;;;;6.82;1.27;;;20.50;67.40;;;;;;5049170;28;20025;-60
2022/09/30 03:48:35;;;;;;;5.15;1.20;;;20.50;65.50;;;;;;5048797;28;20131;-60
2022/09/30 03:51:04;;;;;;;11.48;1.73;;;20.40;67.80;;;;;;5046048;28;20036;-60
2022/09/30 03:53:39;;;;;;;11.18;2.10;;;20.60;67.50;;;;;;5054875;28;20017;-60
2022/09/30 03:56:06;;;;;;;7.70;1.58;;;20.70;68.40;;;;;;5046717;28;20059;-60
2022/09/30 03:58:34;;;;;;;8.15;1.50;;;20.70;69.90;;;;;;5045605;28;20067;-60
2022/09/30 04:01:01;;;;;;;8.73;1.67;;;20.70;71.00;;;;;;5043941;28;20378;-62
2022/09/30 04:03:28;;;;;;;9.07;1.60;;;20.50;69.90;;;;;;5032371;28;20072;-62
2022/09/30 04:05:56;;;;;;;7.00;1.65;;;20.40;72.30;;;;;;5064739;28;20025;-62
2022/09/30 04:08:23;;;;;;;5.93;1.00;;;20.10;76.70;;;;;;5055892;28;20380;-62
2022/09/30 04:10:50;;;;;;;6.85;1.17;;;19.70;77.40;;;;;;5058837;28;20063;-62
2022/09/30 04:13:17;;;;;;;7.07;1.33;;;19.50;79.30;;;;;;5061804;28;20400;-61
2022/09/30 04:15:52;;;;;;;5.32;1.13;;;19.40;81.10;;;;;;5051924;28;20021;-62
2022/09/30 04:18:19;;;;;;;9.10;1.23;;;19.20;80.30;;;;;;5063268;28;20484;-62
2022/09/30 04:20:46;;;;;;;4.63;1.15;;;19.20;82.20;;;;;;5059314;28;20016;-62
2022/09/30 04:23:14;;;;;;;8.50;1.30;;;19.30;81.80;;;;;;5055150;28;20772;-62
2022/09/30 04:25:41;;;;;;;4.65;1.10;;;19.20;79.70;;;;;;5066156;28;20052;-62
2022/09/30 04:28:08;;;;;;;5.80;1.42;;;19.00;82.00;;;;;;5055469;28;20027;-62
2022/09/30 04:30:37;;;;;;;5.30;1.35;;;18.90;83.20;;;;;;5058852;28;20067;-62
2022/09/30 04:33:05;;;;;;;12.25;1.42;;;18.60;83.50;;;;;;5062974;28;20435;-62
2022/09/30 04:35:32;;;;;;;6.65;2.28;;;18.50;85.40;;;;;;5051770;28;20047;-62
2022/09/30 04:38:00;;;;;;;12.38;1.80;;;18.60;84.50;;;;;;5065030;28;20020;-61
2022/09/30 04:40:27;;;;;;;6.97;1.52;;;19.00;84.40;;;;;;5057561;28;20043;-61
2022/09/30 04:42:57;;;;;;;4.80;1.17;;;19.50;85.10;;;;;;5057825;28;20383;-62
2022/09/30 04:45:24;;;;;;;6.03;1.10;;;19.50;85.30;;;;;;5066018;28;20433;-63
2022/09/30 04:47:52;;;;;;;6.40;1.38;;;19.20;87.10;;;;;;5051725;28;20103;-61
2022/09/30 04:50:19;;;;;;;10.38;1.73;;;18.80;88.40;;;;;;5062259;28;20103;-61
2022/09/30 04:52:46;;;;;;;7.10;1.20;;;18.20;89.30;;;;;;5059981;28;20033;-62
2022/09/30 04:55:13;;;;;;;8.68;1.10;;;18.00;89.50;;;;;;5054552;28;20025;-62
2022/09/30 04:57:44;;;;;;;7.63;1.20;;;18.10;90.20;;;;;;5065884;28;20077;-61
2022/09/30 05:00:12;;;;;;;7.90;2.55;;;18.50;88.60;;;;;;5055334;28;20016;-61
2022/09/30 05:02:41;;;;;;;6.53;1.48;;;18.70;87.10;;;;;;5057909;28;20028;-60
2022/09/30 05:05:09;;;;;;;4.35;0.73;;;18.60;87.00;;;;;;5063014;28;20029;-60
2022/09/30 05:07:36;;;;;;;7.53;1.58;;;18.30;87.80;;;;;;5065877;28;20020;-61
2022/09/30 05:10:04;;;;;;;7.00;1.35;;;18.10;89.60;;;;;;5053883;28;20020;-60
2022/09/30 05:12:31;;;;;;;5.95;1.27;;;17.90;90.30;;;;;;5059996;28;20501;-61
2022/09/30 05:14:59;;;;;;;4.63;1.08;;;17.80;91.30;;;;;;5061767;28;20053;-60
2022/09/30 05:17:29;;;;;;;7.13;1.13;;;17.60;90.70;;;;;;5052793;28;20104;-60
2022/09/30 05:19:56;;;;;;;11.23;1.58;;;17.50;90.80;;;;;;5036940;28;20043;-61
2022/09/30 05:22:24;;;;;;;7.57;1.42;;;17.50;90.90;;;;;;5061883;28;20580;-60
2022/09/30 05:24:52;;;;;;;7.05;1.38;;;17.50;91.20;;;;;;5060884;28;20025;-60
2022/09/30 05:27:19;;;;;;;6.32;1.30;;;17.60;90.90;;;;;;5053882;28;20516;-60
2022/09/30 05:29:47;;;;;;;10.32;2.25;;;17.50;91.20;;;;;;5065163;28;20027;-60
2022/09/30 05:32:18;;;;;;;5.13;0.95;;;17.60;91.40;;;;;;5055332;28;20191;-59
2022/09/30 05:34:46;;;;;;;7.40;1.45;;;17.70;91.20;;;;;;5056735;28;20028;-60
2022/09/30 05:37:13;;;;;;;10.65;2.13;;;17.90;91.40;;;;;;5057592;28;20107;-60
2022/09/30 05:39:41;;;;;;;15.45;1.55;;;18.10;90.60;;;;;;5049473;28;20489;-61
2022/09/30 05:42:08;;;;;;;5.57;1.10;;;18.40;90.50;;;;;;5062672;28;20028;-60
2022/09/30 05:44:35;;;;;;;12.13;2.33;;;18.60;89.00;;;;;;5058690;28;20111;-61
2022/09/30 05:47:04;;;;;;;5.00;0.80;;;18.70;89.60;;;;;;5057141;28;20615;-62
2022/09/30 05:49:33;;;;;;;4.07;0.80;;;18.60;84.70;;;;;;5066759;28;20052;-61
2022/09/30 05:52:00;;;;;;;4.38;0.70;;;18.40;84.30;;;;;;5054579;28;20895;-61
2022/09/30 05:54:28;;;;;;;5.82;1.08;;;18.30;84.00;;;;;;5061721;28;20508;-61
2022/09/30 05:56:55;;;;;;;3.10;0.70;;;18.10;85.00;;;;;;5062269;28;20032;-60
2022/09/30 05:59:22;;;;;;;3.97;0.88;;;17.90;85.50;;;;;;5054392;28;20024;-58
2022/09/30 06:01:49;;;;;;;8.05;0.82;;;17.60;86.80;;;;;;5066837;28;20019;-58
2022/09/30 06:04:17;;;;;;;4.97;1.23;;;17.70;88.00;;;;;;5056718;28;20020;-59
2022/09/30 06:06:44;;;;;;;3.38;0.90;;;17.70;88.40;;;;;;5065594;28;20037;-60
2022/09/30 06:09:11;;;;;;;4.57;1.02;;;17.70;88.10;;;;;;5055432;28;20029;-60
2022/09/30 06:11:39;;;;;;;6.28;1.10;;;17.70;89.60;;;;;;5065789;28;20063;-59
2022/09/30 06:14:06;;;;;;;5.18;0.95;;;17.70;89.20;;;;;;5053871;28;20024;-60
2022/09/30 06:16:34;;;;;;;8.32;0.90;;;17.60;90.20;;;;;;5060709;28;20025;-60
2022/09/30 06:19:01;;;;;;;5.00;0.95;;;17.50;90.60;;;;;;5062665;28;20020;-59
2022/09/30 06:21:28;;;;;;;4.20;0.85;;;17.30;89.20;;;;;;5051138;28;20738;-59
2022/09/30 06:23:55;;;;;;;0.90;0.43;;;17.10;90.00;;;;;;5064050;28;20028;-62
2022/09/30 06:26:23;;;;;;;5.93;0.75;;;17.00;90.30;;;;;;5057522;28;20090;-58
2022/09/30 06:28:50;;;;;;;5.05;0.65;;;16.90;90.00;;;;;;5058612;28;20021;-59
2022/09/30 06:31:17;;;;;;;4.53;0.75;;;16.90;90.00;;;;;;5064621;28;20028;-59
2022/09/30 06:33:45;;;;;;;3.28;1.02;;;16.90;90.40;;;;;;5052760;28;20112;-59
2022/09/30 06:36:12;;;;;;;2.55;1.27;;;16.90;90.10;;;;;;5062832;28;20024;-60
2022/09/30 06:38:40;;;;;;;6.05;0.80;;;16.90;90.60;;;;;;5059489;28;20020;-61
2022/09/30 06:41:08;;;;;;;2.92;0.65;;;16.90;90.40;;;;;;5055407;28;20075;-59
2022/09/30 06:43:36;;;;;;;4.45;1.10;;;16.80;90.70;;;;;;5065862;28;20035;-60
2022/09/30 06:46:03;;;;;;;6.40;0.98;;;16.80;92.30;;;;;;5054105;28;20469;-59
2022/09/30 06:48:30;;;;;;;9.57;1.52;;;16.70;93.40;;;;;;5060030;28;20133;-59
2022/09/30 06:50:58;;;;;;;7.88;1.02;;;16.50;94.00;;;;;;5061687;28;20154;-59
2022/09/30 06:53:26;;;;;;;3.75;0.73;;;16.40;94.90;;;;;;5051289;28;20029;-59
2022/09/30 06:55:57;;;;;;;9.55;1.40;;;16.30;95.40;;;;;;5034999;28;20029;-61
2022/09/30 06:58:25;;;;;;;7.72;0.93;;;16.20;96.10;;;;;;5061002;28;20021;-58
2022/09/30 07:01:06;;;;;;;5.45;1.30;;;16.20;96.50;;;;;;5060605;28;20081;-59
2022/09/30 07:03:35;;;;;;;6.32;1.20;;;16.10;97.30;;;;;;5052567;28;20238;-60
2022/09/30 07:06:05;;;;;;;8.32;2.15;;;16.00;97.90;;;;;;5064717;28;20077;-59
2022/09/30 07:08:34;;;;;;;6.55;1.90;;;16.00;98.30;;;;;;5059883;28;20025;-60
2022/09/30 07:11:04;;;;;;;5.65;1.13;;;16.00;98.30;;;;;;5060336;28;20405;-60
2022/09/30 07:13:32;;;;;;;5.07;1.23;;;16.00;98.20;;;;;;5051809;28;20151;-60
2022/09/30 07:15:59;;;;;;;6.75;1.25;;;16.00;98.10;;;;;;5061159;28;20037;-60
2022/09/30 07:18:27;;;;;;;6.63;0.90;;;16.00;97.80;;;;;;5048166;28;20025;-59
2022/09/30 07:20:56;;;;;;;6.35;1.05;;;15.90;97.10;;;;;;5047959;28;20021;-59
2022/09/30 07:23:27;;;;;;;4.40;1.25;;;15.90;97.40;;;;;;5053244;28;20127;-59
2022/09/30 07:25:57;;;;;;;7.32;1.73;;;16.00;96.90;;;;;;5047839;28;20060;-60
2022/09/30 07:28:29;;;;;;;9.15;1.27;;;16.00;96.80;;;;;;5046740;28;20025;-59
2022/09/30 07:30:57;;;;;;;2.75;0.68;;;15.90;96.60;;;;;;5048541;28;20066;-60
2022/09/30 07:33:28;;;;;;;5.47;1.27;;;15.90;96.80;;;;;;5048748;28;20108;-60
2022/09/30 07:35:57;;;;;;;6.40;1.20;;;15.90;96.60;;;;;;5057286;28;20398;-62
2022/09/30 07:38:28;;;;;;;5.80;1.08;;;15.90;97.10;;;;;;5049626;28;20037;-60
2022/09/30 07:41:03;;;;;;;11.00;1.55;;;15.80;96.60;;;;;;5048608;28;20261;-61
2022/09/30 07:43:37;;;;;;;3.95;1.42;;;15.80;96.90;;;;;;5049264;28;20021;-61
2022/09/30 07:46:07;;;;;;;5.22;1.25;;;15.70;97.10;;;;;;5054276;28;20036;-61
2022/09/30 07:51:06;;;;;;;4.32;1.25;;;15.60;98.40;;;;;;5064837;28;20032;-60
2022/09/30 07:53:33;;;;;;;11.90;1.75;;;15.40;99.20;;;;;;5057920;28;20512;-60
2022/09/30 07:56:05;;;;;;;5.55;1.27;;;15.20;99.90;;;;;;5051103;28;20017;-59
2022/09/30 07:58:33;;;;;;;12.20;2.08;;;15.10;99.90;;;;;;5046461;28;20029;-59
2022/09/30 08:01:00;;;;;;;10.20;1.25;;;15.00;99.90;;;;;;5051958;28;20028;-59
2022/09/30 08:03:27;;;;;;;8.75;1.20;;;14.90;99.90;;;;;;5044124;28;20104;-60
2022/09/30 08:05:55;;;;;;;5.70;1.23;;;14.80;99.90;;;;;;5052886;28;20359;-60
2022/09/30 08:08:22;;;;;;;4.70;0.88;;;14.70;99.90;;;;;;5048977;28;20120;-60
2022/09/30 08:10:49;;;;;;;9.27;1.88;;;14.60;99.90;;;;;;5050884;28;20449;-60
2022/09/30 08:13:18;;;;;;;10.55;1.33;;;14.50;99.90;;;;;;5055110;28;20036;-58
2022/09/30 08:15:46;;;;;;;9.65;1.33;;;14.30;99.90;;;;;;5045626;28;20082;-59
2022/09/30 08:18:13;;;;;;;9.93;1.48;;;14.30;99.90;;;;;;5044571;28;20696;-59
2022/09/30 08:20:40;;;;;;;8.20;3.33;;;14.20;99.90;;;;;;5045887;28;20025;-58
2022/09/30 08:23:07;;;;;;;8.27;2.80;;;14.10;99.90;;;;;;5044661;28;20029;-58
2022/09/30 08:25:37;;;;;;;16.75;2.40;;;14.10;99.90;;;;;;5046212;28;20029;-60
2022/09/30 08:28:05;;;;;;;11.43;3.10;;;14.00;99.90;;;;;;5046313;28;20104;-60
2022/09/30 08:30:38;;;;;;;14.10;2.58;;;14.00;99.90;;;;;;5057041;28;20021;-59
2022/09/30 08:33:05;;;;;;;6.55;1.98;;;14.00;99.90;;;;;;5037323;28;20036;-56
2022/09/30 08:35:35;;;;;;;9.90;1.77;;;13.90;99.90;;;;;;5040712;28;20527;-56
2022/09/30 08:38:03;;;;;;;11.13;1.67;;;13.90;99.90;;;;;;5046741;28;20110;-58
2022/09/30 08:40:33;;;;;;;12.57;2.15;;;13.80;99.90;;;;;;5045733;28;20021;-57
2022/09/30 08:43:35;;;;;;;14.25;2.10;;;13.80;99.90;;;;;;5047603;28;20029;-56
2022/09/30 08:46:10;;;;;;;11.15;1.77;;;13.80;99.90;;;;;;5046321;28;20036;-58
2022/09/30 08:48:52;;;;;;;9.07;2.25;;;13.80;99.90;;;;;;5046139;28;20044;-59
2022/09/30 08:51:23;;;;;;;13.23;2.25;;;13.80;99.90;;;;;;5040808;28;20045;-60
2022/09/30 08:53:51;;;;;;;14.68;1.73;;;13.80;99.90;;;;;;5038655;28;20029;-59
2022/09/30 08:56:29;;;;;;;15.95;3.40;;;13.80;99.90;;;;;;5047601;28;20049;-60
2022/09/30 08:59:19;;;;;;;13.90;4.45;;;13.80;99.90;;;;;;5044944;28;20036;-59
2022/09/30 09:01:52;;;;;;;13.15;2.40;;;13.80;99.90;;;;;;5046740;28;20021;-59
2022/09/30 09:04:20;;;;;;;8.02;1.83;;;13.80;99.90;;;;;;5047061;28;20126;-58
2022/09/30 09:06:57;;;;;;;9.45;3.05;;;13.80;99.90;;;;;;5045963;28;20409;-58
2022/09/30 09:09:43;;;;;;;14.18;2.67;;;13.70;99.90;;;;;;5047055;28;20025;-57
2022/09/30 09:12:27;;;;;;;11.07;2.53;;;13.60;99.90;;;;;;5046491;28;20033;-59
2022/09/30 09:15:11;;;;;;;19.52;2.80;;;13.60;99.90;;;;;;5045389;28;20025;-59
2022/09/30 09:17:50;;;;;;;17.73;3.63;;;13.50;99.90;;;;;;5045078;28;20033;-59
2022/09/30 09:20:21;;;;;;;19.38;4.90;;;13.30;99.90;;;;;;5046844;28;20460;-59
2022/09/30 09:22:50;;;;;;;24.63;5.75;;;13.30;99.90;;;;;;5046538;28;20048;-59
2022/09/30 09:25:26;;;;;;;24.30;4.05;;;13.20;99.90;;;;;;5046522;28;20060;-59
2022/09/30 09:28:01;;;;;;;18.05;3.70;;;13.10;99.90;;;;;;5053873;28;20025;-59
2022/09/30 09:30:42;;;;;;;26.08;3.60;;;13.10;99.90;;;;;;5046977;28;20115;-59
2022/09/30 09:33:22;;;;;;;24.95;4.53;;;13.10;99.90;;;;;;5036036;28;20028;-61
2022/09/30 09:36:13;;;;;;;36.58;11.15;;;13.10;99.90;;;;;;5047181;28;20028;-59
2022/09/30 09:38:59;;;;;;;26.13;7.70;;;13.10;99.90;;;;;;5025347;28;20080;-59
2022/09/30 09:42:03;;;;;;;27.77;5.63;;;13.00;99.90;;;;;;5025152;28;20036;-59
2022/09/30 09:44:33;;;;;;;22.48;3.13;;;13.00;99.90;;;;;;5046326;28;20033;-59
2022/09/30 09:47:04;;;;;;;25.10;3.97;;;13.00;99.90;;;;;;5051542;28;20052;-60
2022/09/30 09:49:43;;;;;;;26.08;5.20;;;13.00;99.90;;;;;;5046436;28;20133;-59
2022/09/30 09:52:14;;;;;;;27.15;4.43;;;13.00;99.90;;;;;;5046268;28;20045;-59
2022/09/30 09:54:55;;;;;;;29.23;6.53;;;13.00;99.90;;;;;;5046235;28;20411;-58
2022/09/30 09:57:26;;;;;;;29.65;4.50;;;13.00;99.90;;;;;;5045513;28;20021;-59
2022/09/30 10:03:25;;;;;;;29.33;5.07;;;13.00;99.90;;;;;;5040024;28;20187;-59
2022/09/30 10:06:08;;;;;;;29.13;4.13;;;13.10;99.90;;;;;;5046360;28;20063;-58
2022/09/30 10:08:51;;;;;;;40.60;5.68;;;13.00;99.90;;;;;;5025506;28;20087;-58
2022/09/30 10:11:26;;;;;;;38.85;4.35;;;13.00;99.90;;;;;;5026286;28;20021;-59
2022/09/30 10:14:00;;;;;;;34.25;4.68;;;13.00;99.90;;;;;;5033348;28;20781;-58
2022/09/30 10:16:36;;;;;;;26.00;4.72;;;13.00;99.90;;;;;;5049060;28;20557;-60
2022/09/30 10:19:24;;;;;;;32.30;3.80;;;13.00;99.90;;;;;;5064140;28;20047;-57
2022/09/30 10:22:12;;;;;;;32.30;3.42;;;13.00;99.90;;;;;;5046634;28;20029;-58
2022/09/30 10:24:40;;;;;;;36.58;4.20;;;13.00;99.90;;;;;;5041724;28;20041;-59
2022/09/30 10:27:34;;;;;;;33.30;4.38;;;12.90;99.90;;;;;;5044887;28;20043;-58
2022/09/30 10:30:01;;;;;;;26.10;5.28;;;12.90;99.90;;;;;;5046658;28;20112;-58
2022/09/30 10:32:29;;;;;;;22.73;4.00;;;12.90;99.90;;;;;;5048122;28;20406;-59
2022/09/30 10:35:15;;;;;;;35.33;5.30;;;12.90;99.90;;;;;;5049099;28;20076;-58
2022/09/30 10:37:52;;;;;;;37.97;4.60;;;12.80;99.90;;;;;;5053836;28;20029;-57
2022/09/30 10:40:26;;;;;;;22.50;4.35;;;12.90;99.90;;;;;;5049754;28;20056;-59
2022/09/30 10:42:55;;;;;;;24.42;4.32;;;12.80;99.90;;;;;;5050065;28;20031;-58
2022/09/30 10:45:36;;;;;;;23.40;4.78;;;12.80;99.90;;;;;;5050249;28;20029;-59
2022/09/30 10:48:15;;;;;;;24.23;3.50;;;12.70;99.90;;;;;;5054593;28;20027;-59
2022/09/30 10:50:51;;;;;;;22.75;3.72;;;12.70;99.90;;;;;;5049419;28;20063;-59
2022/09/30 10:53:28;;;;;;;33.65;4.32;;;12.70;99.90;;;;;;5048922;28;20094;-59
2022/09/30 10:55:56;;;;;;;25.13;3.45;;;12.70;99.90;;;;;;5049085;28;20029;-59
2022/09/30 10:58:45;;;;;;;37.00;4.85;;;12.60;99.90;;;;;;5060658;28;20074;-59
2022/09/30 11:01:12;;;;;;;30.48;3.58;;;12.60;99.90;;;;;;5043487;28;20068;-58
2022/09/30 11:04:04;;;;;;;26.35;4.20;;;12.60;99.90;;;;;;5047736;28;20039;-58
2022/09/30 11:06:39;;;;;;;24.17;4.05;;;12.60;99.90;;;;;;5051877;28;20101;-60
2022/09/30 11:09:16;;;;;;;26.25;3.67;;;12.50;99.90;;;;;;5059777;28;20106;-58
2022/09/30 11:11:56;;;;;;;28.45;3.58;;;12.50;99.90;;;;;;5033608;28;20039;-59
2022/09/30 11:14:45;;;;;;;29.25;4.43;;;12.50;99.90;;;;;;5039510;28;20036;-59
2022/09/30 11:17:29;;;;;;;43.90;5.25;;;12.60;99.90;;;;;;5028800;28;20029;-59
2022/09/30 11:20:05;;;;;;;26.33;4.82;;;12.60;99.90;;;;;;5043243;28;20568;-59
2022/09/30 11:22:39;;;;;;;28.35;3.97;;;12.60;99.90;;;;;;5048492;28;20102;-58
2022/09/30 11:25:12;;;;;;;37.33;4.80;;;12.70;99.90;;;;;;5028926;28;20079;-58
2022/09/30 11:28:04;;;;;;;36.67;4.38;;;12.70;99.90;;;;;;5037625;28;20024;-58
2022/09/30 11:30:43;;;;;;;27.05;4.45;;;12.70;99.90;;;;;;5048755;28;20371;-59
2022/09/30 11:33:38;;;;;;;33.65;4.53;;;12.60;99.90;;;;;;5048814;28;20068;-59
2022/09/30 11:36:39;;;;;;;25.42;4.20;;;12.70;99.90;;;;;;5048568;28;20031;-59
2022/09/30 11:39:25;;;;;;;29.15;6.50;;;12.60;99.90;;;;;;5038845;28;20032;-59
2022/09/30 11:42:10;;;;;;;29.33;4.72;;;12.70;99.90;;;;;;5055119;28;20029;-58
2022/09/30 11:44:40;;;;;;;25.30;4.20;;;12.70;99.90;;;;;;5048514;28;20025;-58
2022/09/30 11:47:28;;;;;;;34.47;7.20;;;12.70;99.90;;;;;;5048021;28;20028;-58
2022/09/30 11:50:15;;;;;;;26.75;5.78;;;12.70;99.90;;;;;;5049228;28;20098;-59
2022/09/30 11:53:06;;;;;;;32.55;5.65;;;12.70;99.90;;;;;;5067789;28;20746;-58
2022/09/30 11:55:52;;;;;;;24.48;6.93;;;12.70;99.90;;;;;;5048172;28;20052;-58
2022/09/30 11:58:23;;;;;;;27.50;5.45;;;12.70;99.90;;;;;;5046234;28;20033;-58
2022/09/30 12:01:00;;;;;;;23.80;3.95;;;12.70;99.90;;;;;;5057670;28;20473;-61
2022/09/30 12:03:37;;;;;;;21.05;4.30;;;12.70;99.90;;;;;;5066469;28;20024;-59
2022/09/30 12:06:37;;;;;;;21.17;4.15;;;12.70;99.90;;;;;;5047973;28;20036;-60
2022/09/30 12:09:16;;;;;;;25.58;4.00;;;12.70;99.90;;;;;;5046391;28;20064;-60
2022/09/30 12:12:05;;;;;;;21.95;3.88;;;12.80;99.90;;;;;;5047997;28;20363;-59
2022/09/30 12:14:42;;;;;;;25.00;3.35;;;12.70;99.90;;;;;;5048025;28;20098;-59
2022/09/30 12:17:31;;;;;;;23.58;3.97;;;12.70;99.90;;;;;;5047242;28;20444;-59
2022/09/30 12:20:16;;;;;;;19.02;2.95;;;12.70;99.90;;;;;;5048240;28;20025;-59
2022/09/30 12:22:46;;;;;;;30.85;3.83;;;12.80;99.90;;;;;;5061423;28;20171;-59
2022/09/30 12:25:30;;;;;;;22.30;4.05;;;12.80;99.90;;;;;;5046002;28;20135;-59
2022/09/30 12:31:45;;;;;;;30.80;3.88;;;12.70;99.90;;;;;;5048747;28;20472;-61
2022/09/30 12:34:30;;;;;;;32.90;3.90;;;12.70;99.90;;;;;;5063586;28;20053;-59
2022/09/30 12:37:34;;;;;;;22.30;3.15;;;12.80;99.90;;;;;;5051405;28;20025;-58
2022/09/30 12:40:38;;;;;;;22.17;3.97;;;12.70;99.90;;;;;;5047873;28;20055;-59
2022/09/30 12:43:05;;;;;;;24.23;4.43;;;12.80;99.90;;;;;;5043478;28;20108;-59
2022/09/30 12:45:40;;;;;;;27.30;3.78;;;12.70;99.90;;;;;;5046083;28;20401;-60
2022/09/30 12:48:12;;;;;;;30.73;4.32;;;12.70;99.90;;;;;;5047051;28;20024;-60
2022/09/30 12:50:51;;;;;;;25.17;4.45;;;12.70;99.90;;;;;;5056116;28;20040;-58
2022/09/30 12:53:34;;;;;;;26.17;4.40;;;12.70;99.90;;;;;;5066863;28;20033;-59
2022/09/30 12:56:10;;;;;;;19.23;4.43;;;12.70;99.90;;;;;;5060676;28;20071;-59
2022/09/30 12:58:43;;;;;;;22.65;3.47;;;12.60;99.90;;;;;;5045196;28;20036;-59
2022/09/30 13:01:13;;;;;;;23.80;3.95;;;12.60;99.90;;;;;;5060273;28;20047;-59
2022/09/30 13:04:07;;;;;;;19.98;3.70;;;12.60;99.90;;;;;;5062366;28;21403;-59
2022/09/30 13:06:46;;;;;;;26.15;4.45;;;12.60;99.90;;;;;;5044503;28;20052;-57
2022/09/30 13:09:21;;;;;;;25.83;4.07;;;12.60;99.90;;;;;;5041781;28;20367;-59
2022/09/30 13:12:12;;;;;;;29.05;4.57;;;12.60;99.90;;;;;;5077389;28;20494;-60
2022/09/30 13:14:44;;;;;;;18.60;4.63;;;12.60;99.90;;;;;;5046916;28;20099;-59
2022/09/30 13:17:12;;;;;;;27.08;3.67;;;12.50;99.90;;;;;;5046592;28;20029;-58
2022/09/30 13:19:43;;;;;;;24.40;3.53;;;12.50;99.90;;;;;;5046897;28;20396;-58
2022/09/30 13:22:28;;;;;;;21.80;4.00;;;12.50;99.90;;;;;;5045375;28;20053;-59
2022/09/30 13:27:44;;;;;;;19.80;3.72;;;12.50;99.90;;;;;;5048136;28;20029;-57
2022/09/30 13:30:17;;;;;;;26.60;3.97;;;12.50;99.90;;;;;;5048485;28;20078;-56
2022/09/30 13:33:04;;;;;;;28.42;5.05;;;12.50;99.90;;;;;;5049087;28;20072;-57
2022/09/30 13:35:32;;;;;;;24.48;3.55;;;12.50;99.90;;;;;;5049314;28;20032;-57
2022/09/30 13:38:15;;;;;;;19.23;3.13;;;12.40;99.90;;;;;;5049108;28;20349;-58